sensor_id;sensor_type;location;lat;lon;timestamp;temperature;humidity
26479;DHT22;14163;-26.142;27.992;2023-08-17T00:00:08;16.80;99.90
26479;DHT22;14163;-26.142;27.992;2023-08-17T00:02:40;16.70;99.90
26479;DHT22;14163;-26.142;27.992;2023-08-17T00:05:10;16.60;99.90
26479;DHT22;14163;-26.142;27.992;2023-08-17T00:07:39;16.40;99.90
26479;DHT22;14163;-26.142;27.992;2023-08-17T00:10:08;16.40;99.90
26479;DHT22;14163;-26.142;27.992;2023-08-17T00:12:37;16.40;99.90
26479;DHT22;14163;-26.142;27.992;2023-08-17T00:15:09;16.40;99.90
26479;DHT22;14163;-26.142;27.992;2023-08-17T00:17:38;16.60;99.90
26479;DHT22;14163;-26.142;27.992;2023-08-17T00:20:08;16.60;99.90
26479;DHT22;14163;-26.142;27.992;2023-08-17T00:22:38;16.80;99.90
26479;DHT22;14163;-26.142;27.992;2023-08-17T00:25:07;16.90;99.90
26479;DHT22;14163;-26.142;27.992;2023-08-17T00:27:37;17.00;99.90
26479;DHT22;14163;-26.142;27.992;2023-08-17T00:30:10;17.00;99.90
26479;DHT22;14163;-26.142;27.992;2023-08-17T00:32:39;16.90;99.90
26479;DHT22;14163;-26.142;27.992;2023-08-17T00:35:08;16.90;99.90
26479;DHT22;14163;-26.142;27.992;2023-08-17T00:37:37;16.90;99.90
26479;DHT22;14163;-26.142;27.992;2023-08-17T00:40:08;16.90;99.90
26479;DHT22;14163;-26.142;27.992;2023-08-17T00:42:37;16.90;99.90
26479;DHT22;14163;-26.142;27.992;2023-08-17T00:45:09;16.90;99.90
26479;DHT22;14163;-26.142;27.992;2023-08-17T00:47:39;16.90;99.90
26479;DHT22;14163;-26.142;27.992;2023-08-17T00:50:09;16.80;99.90
26479;DHT22;14163;-26.142;27.992;2023-08-17T00:52:39;16.60;99.90
26479;DHT22;14163;-26.142;27.992;2023-08-17T00:55:10;16.60;99.90
26479;DHT22;14163;-26.142;27.992;2023-08-17T00:57:41;16.60;99.90
26479;DHT22;14163;-26.142;27.992;2023-08-17T01:00:13;16.50;99.90
26479;DHT22;14163;-26.142;27.992;2023-08-17T01:02:43;16.50;99.90
26479;DHT22;14163;-26.142;27.992;2023-08-17T01:05:12;16.40;99.90
26479;DHT22;14163;-26.142;27.992;2023-08-17T01:07:41;16.30;99.90
26479;DHT22;14163;-26.142;27.992;2023-08-17T01:10:11;16.10;99.90
26479;DHT22;14163;-26.142;27.992;2023-08-17T01:12:46;15.90;99.90
26479;DHT22;14163;-26.142;27.992;2023-08-17T01:15:23;15.70;99.90
26479;DHT22;14163;-26.142;27.992;2023-08-17T01:18:00;15.70;99.90
26479;DHT22;14163;-26.142;27.992;2023-08-17T01:20:32;15.40;99.90
26479;DHT22;14163;-26.142;27.992;2023-08-17T01:23:05;15.10;99.90
26479;DHT22;14163;-26.142;27.992;2023-08-17T01:25:34;15.00;99.90
26479;DHT22;14163;-26.142;27.992;2023-08-17T01:28:04;14.90;99.90
26479;DHT22;14163;-26.142;27.992;2023-08-17T01:30:39;14.90;99.90
26479;DHT22;14163;-26.142;27.992;2023-08-17T01:33:12;14.90;99.90
26479;DHT22;14163;-26.142;27.992;2023-08-17T01:35:46;15.00;99.90
26479;DHT22;14163;-26.142;27.992;2023-08-17T01:38:21;15.10;99.90
26479;DHT22;14163;-26.142;27.992;2023-08-17T01:40:52;15.20;99.90
26479;DHT22;14163;-26.142;27.992;2023-08-17T01:43:22;15.30;99.90
26479;DHT22;14163;-26.142;27.992;2023-08-17T01:45:51;15.40;99.90
26479;DHT22;14163;-26.142;27.992;2023-08-17T01:48:20;15.40;99.90
26479;DHT22;14163;-26.142;27.992;2023-08-17T01:50:49;15.50;99.90
26479;DHT22;14163;-26.142;27.992;2023-08-17T01:53:20;15.70;99.90
26479;DHT22;14163;-26.142;27.992;2023-08-17T01:55:49;16.00;99.90
26479;DHT22;14163;-26.142;27.992;2023-08-17T01:58:18;16.20;99.90
26479;DHT22;14163;-26.142;27.992;2023-08-17T02:00:48;16.40;99.90
26479;DHT22;14163;-26.142;27.992;2023-08-17T02:03:17;16.50;99.90
26479;DHT22;14163;-26.142;27.992;2023-08-17T02:05:46;16.50;99.90
26479;DHT22;14163;-26.142;27.992;2023-08-17T02:08:16;16.50;99.90
26479;DHT22;14163;-26.142;27.992;2023-08-17T02:10:47;16.50;99.90
26479;DHT22;14163;-26.142;27.992;2023-08-17T02:13:16;16.50;99.90
26479;DHT22;14163;-26.142;27.992;2023-08-17T02:15:46;16.50;99.90
26479;DHT22;14163;-26.142;27.992;2023-08-17T02:18:15;16.50;99.90
26479;DHT22;14163;-26.142;27.992;2023-08-17T02:20:44;16.50;99.90
26479;DHT22;14163;-26.142;27.992;2023-08-17T02:23:13;16.50;99.90
26479;DHT22;14163;-26.142;27.992;2023-08-17T02:25:42;16.40;99.90
26479;DHT22;14163;-26.142;27.992;2023-08-17T02:28:13;16.50;99.90
26479;DHT22;14163;-26.142;27.992;2023-08-17T02:30:42;16.40;99.90
26479;DHT22;14163;-26.142;27.992;2023-08-17T02:33:11;16.60;99.90
26479;DHT22;14163;-26.142;27.992;2023-08-17T02:35:41;16.60;99.90
26479;DHT22;14163;-26.142;27.992;2023-08-17T02:38:10;16.70;99.90
26479;DHT22;14163;-26.142;27.992;2023-08-17T02:40:39;16.70;99.90
26479;DHT22;14163;-26.142;27.992;2023-08-17T02:43:08;16.80;99.90
26479;DHT22;14163;-26.142;27.992;2023-08-17T02:45:39;16.80;99.90
26479;DHT22;14163;-26.142;27.992;2023-08-17T02:48:08;16.80;99.90
26479;DHT22;14163;-26.142;27.992;2023-08-17T02:50:37;16.90;99.90
26479;DHT22;14163;-26.142;27.992;2023-08-17T02:53:06;16.90;99.90
26479;DHT22;14163;-26.142;27.992;2023-08-17T02:55:35;16.90;99.90
26479;DHT22;14163;-26.142;27.992;2023-08-17T02:58:04;16.90;99.90
26479;DHT22;14163;-26.142;27.992;2023-08-17T03:00:33;16.90;99.90
26479;DHT22;14163;-26.142;27.992;2023-08-17T03:03:05;17.00;99.90
26479;DHT22;14163;-26.142;27.992;2023-08-17T03:05:34;16.90;99.90
26479;DHT22;14163;-26.142;27.992;2023-08-17T03:08:04;16.90;99.90
26479;DHT22;14163;-26.142;27.992;2023-08-17T03:10:33;16.80;99.90
26479;DHT22;14163;-26.142;27.992;2023-08-17T03:13:02;16.80;99.90
26479;DHT22;14163;-26.142;27.992;2023-08-17T03:15:31;16.70;99.90
26479;DHT22;14163;-26.142;27.992;2023-08-17T03:18:00;16.70;99.90
26479;DHT22;14163;-26.142;27.992;2023-08-17T03:20:31;16.70;99.90
26479;DHT22;14163;-26.142;27.992;2023-08-17T03:23:01;16.70;99.90
26479;DHT22;14163;-26.142;27.992;2023-08-17T03:25:32;16.70;99.90
26479;DHT22;14163;-26.142;27.992;2023-08-17T03:28:02;16.70;99.90
26479;DHT22;14163;-26.142;27.992;2023-08-17T03:30:31;16.60;99.90
26479;DHT22;14163;-26.142;27.992;2023-08-17T03:33:00;16.50;99.90
26479;DHT22;14163;-26.142;27.992;2023-08-17T03:35:32;16.50;99.90
26479;DHT22;14163;-26.142;27.992;2023-08-17T03:38:01;16.50;99.90
26479;DHT22;14163;-26.142;27.992;2023-08-17T03:40:30;16.60;99.90
26479;DHT22;14163;-26.142;27.992;2023-08-17T03:42:59;16.40;99.90
26479;DHT22;14163;-26.142;27.992;2023-08-17T03:45:29;16.40;99.90
26479;DHT22;14163;-26.142;27.992;2023-08-17T03:47:58;16.40;99.90
26479;DHT22;14163;-26.142;27.992;2023-08-17T03:50:27;16.50;99.90
26479;DHT22;14163;-26.142;27.992;2023-08-17T03:52:58;16.60;99.90
26479;DHT22;14163;-26.142;27.992;2023-08-17T03:55:27;16.50;99.90
26479;DHT22;14163;-26.142;27.992;2023-08-17T03:57:56;16.40;99.90
26479;DHT22;14163;-26.142;27.992;2023-08-17T04:00:25;16.30;99.90
26479;DHT22;14163;-26.142;27.992;2023-08-17T04:02:54;16.20;99.90
26479;DHT22;14163;-26.142;27.992;2023-08-17T04:05:23;16.10;99.90
26479;DHT22;14163;-26.142;27.992;2023-08-17T04:07:52;16.10;99.90
26479;DHT22;14163;-26.142;27.992;2023-08-17T04:10:23;15.90;99.90
26479;DHT22;14163;-26.142;27.992;2023-08-17T04:12:52;15.80;99.90
26479;DHT22;14163;-26.142;27.992;2023-08-17T04:15:21;15.60;99.90
26479;DHT22;14163;-26.142;27.992;2023-08-17T04:17:50;15.50;99.90
26479;DHT22;14163;-26.142;27.992;2023-08-17T04:20:19;15.50;99.90
26479;DHT22;14163;-26.142;27.992;2023-08-17T04:22:48;15.60;99.90
26479;DHT22;14163;-26.142;27.992;2023-08-17T04:25:17;15.70;99.90
26479;DHT22;14163;-26.142;27.992;2023-08-17T04:27:48;15.90;99.90
26479;DHT22;14163;-26.142;27.992;2023-08-17T04:30:17;16.00;99.90
26479;DHT22;14163;-26.142;27.992;2023-08-17T04:32:46;16.10;99.90
26479;DHT22;14163;-26.142;27.992;2023-08-17T04:35:19;16.10;99.90
26479;DHT22;14163;-26.142;27.992;2023-08-17T04:37:48;16.10;99.90
26479;DHT22;14163;-26.142;27.992;2023-08-17T04:40:17;16.20;99.90
26479;DHT22;14163;-26.142;27.992;2023-08-17T04:42:48;16.20;99.90
26479;DHT22;14163;-26.142;27.992;2023-08-17T04:45:17;16.30;99.90
26479;DHT22;14163;-26.142;27.992;2023-08-17T04:47:46;16.30;99.90
26479;DHT22;14163;-26.142;27.992;2023-08-17T04:50:15;16.30;99.90
26479;DHT22;14163;-26.142;27.992;2023-08-17T04:52:44;16.30;99.90
26479;DHT22;14163;-26.142;27.992;2023-08-17T04:55:14;16.40;99.90
26479;DHT22;14163;-26.142;27.992;2023-08-17T04:57:43;16.40;99.90
26479;DHT22;14163;-26.142;27.992;2023-08-17T05:00:16;16.50;99.90
26479;DHT22;14163;-26.142;27.992;2023-08-17T05:02:52;16.50;99.90
26479;DHT22;14163;-26.142;27.992;2023-08-17T05:05:21;16.60;99.90
26479;DHT22;14163;-26.142;27.992;2023-08-17T05:07:50;16.60;99.90
26479;DHT22;14163;-26.142;27.992;2023-08-17T05:10:19;16.50;99.90
26479;DHT22;14163;-26.142;27.992;2023-08-17T05:12:48;16.60;99.90
26479;DHT22;14163;-26.142;27.992;2023-08-17T05:15:19;16.50;99.90
26479;DHT22;14163;-26.142;27.992;2023-08-17T05:17:48;16.60;99.90
26479;DHT22;14163;-26.142;27.992;2023-08-17T05:20:17;16.60;99.90
26479;DHT22;14163;-26.142;27.992;2023-08-17T05:22:47;16.60;99.90
26479;DHT22;14163;-26.142;27.992;2023-08-17T05:25:16;16.60;99.90
26479;DHT22;14163;-26.142;27.992;2023-08-17T05:27:45;16.70;99.90
26479;DHT22;14163;-26.142;27.992;2023-08-17T05:30:17;16.70;99.90
26479;DHT22;14163;-26.142;27.992;2023-08-17T05:32:46;16.70;99.90
26479;DHT22;14163;-26.142;27.992;2023-08-17T05:35:15;16.80;99.90
26479;DHT22;14163;-26.142;27.992;2023-08-17T05:37:44;16.80;99.90
26479;DHT22;14163;-26.142;27.992;2023-08-17T05:40:14;16.80;99.90
26479;DHT22;14163;-26.142;27.992;2023-08-17T05:42:43;16.80;99.90
26479;DHT22;14163;-26.142;27.992;2023-08-17T05:45:12;16.80;99.90
26479;DHT22;14163;-26.142;27.992;2023-08-17T05:47:44;16.80;99.90
26479;DHT22;14163;-26.142;27.992;2023-08-17T05:50:13;16.90;99.90
26479;DHT22;14163;-26.142;27.992;2023-08-17T05:52:42;16.80;99.90
26479;DHT22;14163;-26.142;27.992;2023-08-17T05:55:11;16.40;99.90
26479;DHT22;14163;-26.142;27.992;2023-08-17T05:57:40;15.70;99.90
26479;DHT22;14163;-26.142;27.992;2023-08-17T06:00:10;15.50;99.90
26479;DHT22;14163;-26.142;27.992;2023-08-17T06:02:40;15.50;99.90
26479;DHT22;14163;-26.142;27.992;2023-08-17T06:05:11;15.50;99.90
26479;DHT22;14163;-26.142;27.992;2023-08-17T06:07:40;15.60;99.90
26479;DHT22;14163;-26.142;27.992;2023-08-17T06:10:10;15.50;99.90
26479;DHT22;14163;-26.142;27.992;2023-08-17T06:12:40;15.60;99.90
26479;DHT22;14163;-26.142;27.992;2023-08-17T06:15:09;15.90;99.90
26479;DHT22;14163;-26.142;27.992;2023-08-17T06:17:39;15.90;99.90
26479;DHT22;14163;-26.142;27.992;2023-08-17T06:20:11;16.10;99.90
26479;DHT22;14163;-26.142;27.992;2023-08-17T06:22:41;16.30;99.90
26479;DHT22;14163;-26.142;27.992;2023-08-17T06:25:10;16.40;99.90
26479;DHT22;14163;-26.142;27.992;2023-08-17T06:27:42;16.60;99.90
26479;DHT22;14163;-26.142;27.992;2023-08-17T06:30:12;16.70;99.90
26479;DHT22;14163;-26.142;27.992;2023-08-17T06:32:41;16.90;99.90
26479;DHT22;14163;-26.142;27.992;2023-08-17T06:35:12;17.00;99.90
26479;DHT22;14163;-26.142;27.992;2023-08-17T06:37:41;17.00;99.90
26479;DHT22;14163;-26.142;27.992;2023-08-17T06:40:10;16.80;99.90
26479;DHT22;14163;-26.142;27.992;2023-08-17T06:42:39;16.90;99.90
26479;DHT22;14163;-26.142;27.992;2023-08-17T06:45:09;17.00;99.90
26479;DHT22;14163;-26.142;27.992;2023-08-17T06:47:38;17.10;99.90
26479;DHT22;14163;-26.142;27.992;2023-08-17T06:50:08;17.20;99.90
26479;DHT22;14163;-26.142;27.992;2023-08-17T06:52:39;16.80;99.90
26479;DHT22;14163;-26.142;27.992;2023-08-17T06:55:08;16.40;99.90
26479;DHT22;14163;-26.142;27.992;2023-08-17T06:57:40;16.20;99.90
26479;DHT22;14163;-26.142;27.992;2023-08-17T07:00:10;15.90;99.90
26479;DHT22;14163;-26.142;27.992;2023-08-17T07:02:40;15.50;99.90
26479;DHT22;14163;-26.142;27.992;2023-08-17T07:05:09;15.50;99.90
26479;DHT22;14163;-26.142;27.992;2023-08-17T07:07:39;15.70;99.90
26479;DHT22;14163;-26.142;27.992;2023-08-17T07:10:09;15.70;99.90
26479;DHT22;14163;-26.142;27.992;2023-08-17T07:12:39;15.50;99.90
26479;DHT22;14163;-26.142;27.992;2023-08-17T07:15:08;15.60;99.90
26479;DHT22;14163;-26.142;27.992;2023-08-17T07:17:38;15.80;99.90
26479;DHT22;14163;-26.142;27.992;2023-08-17T07:20:08;15.90;99.90
26479;DHT22;14163;-26.142;27.992;2023-08-17T07:22:40;15.90;99.90
26479;DHT22;14163;-26.142;27.992;2023-08-17T07:25:09;16.20;99.90
26479;DHT22;14163;-26.142;27.992;2023-08-17T07:27:38;16.30;99.90
26479;DHT22;14163;-26.142;27.992;2023-08-17T07:30:08;16.30;99.90
26479;DHT22;14163;-26.142;27.992;2023-08-17T07:32:37;16.50;99.90
26479;DHT22;14163;-26.142;27.992;2023-08-17T07:35:07;16.50;99.90
26479;DHT22;14163;-26.142;27.992;2023-08-17T07:37:36;16.80;99.90
26479;DHT22;14163;-26.142;27.992;2023-08-17T07:40:08;16.90;99.90
26479;DHT22;14163;-26.142;27.992;2023-08-17T07:42:37;16.90;99.90
26479;DHT22;14163;-26.142;27.992;2023-08-17T07:45:06;16.90;99.90
26479;DHT22;14163;-26.142;27.992;2023-08-17T07:47:36;17.00;99.90
26479;DHT22;14163;-26.142;27.992;2023-08-17T07:50:06;17.20;99.90
26479;DHT22;14163;-26.142;27.992;2023-08-17T07:52:35;17.10;99.90
26479;DHT22;14163;-26.142;27.992;2023-08-17T07:55:06;16.90;99.90
26479;DHT22;14163;-26.142;27.992;2023-08-17T07:57:35;16.90;99.90
26479;DHT22;14163;-26.142;27.992;2023-08-17T08:00:05;16.90;99.90
26479;DHT22;14163;-26.142;27.992;2023-08-17T08:02:34;17.20;99.90
26479;DHT22;14163;-26.142;27.992;2023-08-17T08:05:09;17.30;99.90
26479;DHT22;14163;-26.142;27.992;2023-08-17T08:07:45;17.40;99.90
26479;DHT22;14163;-26.142;27.992;2023-08-17T08:10:17;17.60;99.90
26479;DHT22;14163;-26.142;27.992;2023-08-17T08:12:46;17.50;99.90
26479;DHT22;14163;-26.142;27.992;2023-08-17T08:15:15;17.40;99.90
26479;DHT22;14163;-26.142;27.992;2023-08-17T08:17:44;17.20;99.90
26479;DHT22;14163;-26.142;27.992;2023-08-17T08:20:13;17.30;99.90
26479;DHT22;14163;-26.142;27.992;2023-08-17T08:22:42;17.50;99.90
26479;DHT22;14163;-26.142;27.992;2023-08-17T08:25:11;17.70;99.90
26479;DHT22;14163;-26.142;27.992;2023-08-17T08:27:43;17.80;99.90
26479;DHT22;14163;-26.142;27.992;2023-08-17T08:30:12;17.90;99.90
26479;DHT22;14163;-26.142;27.992;2023-08-17T08:32:41;17.90;99.90
26479;DHT22;14163;-26.142;27.992;2023-08-17T08:35:10;18.00;99.90
26479;DHT22;14163;-26.142;27.992;2023-08-17T08:37:39;18.00;99.90
26479;DHT22;14163;-26.142;27.992;2023-08-17T08:40:12;18.00;99.90
26479;DHT22;14163;-26.142;27.992;2023-08-17T08:42:43;18.20;99.90
26479;DHT22;14163;-26.142;27.992;2023-08-17T08:45:12;18.50;99.90
26479;DHT22;14163;-26.142;27.992;2023-08-17T08:47:42;18.50;99.90
26479;DHT22;14163;-26.142;27.992;2023-08-17T08:50:16;18.50;99.90
26479;DHT22;14163;-26.142;27.992;2023-08-17T08:52:53;18.70;99.90
26479;DHT22;14163;-26.142;27.992;2023-08-17T08:55:24;18.60;99.90
26479;DHT22;14163;-26.142;27.992;2023-08-17T08:57:57;18.50;99.90
26479;DHT22;14163;-26.142;27.992;2023-08-17T09:00:27;18.60;99.90
26479;DHT22;14163;-26.142;27.992;2023-08-17T09:02:57;18.70;99.90
26479;DHT22;14163;-26.142;27.992;2023-08-17T09:05:26;19.00;99.90
26479;DHT22;14163;-26.142;27.992;2023-08-17T09:07:57;18.80;99.90
26479;DHT22;14163;-26.142;27.992;2023-08-17T09:10:28;19.10;99.90
26479;DHT22;14163;-26.142;27.992;2023-08-17T09:12:59;19.50;99.90
26479;DHT22;14163;-26.142;27.992;2023-08-17T09:15:28;19.50;99.90
26479;DHT22;14163;-26.142;27.992;2023-08-17T09:17:58;19.60;99.90
26479;DHT22;14163;-26.142;27.992;2023-08-17T09:20:38;19.40;99.90
26479;DHT22;14163;-26.142;27.992;2023-08-17T09:23:11;19.30;99.90
26479;DHT22;14163;-26.142;27.992;2023-08-17T09:25:43;19.50;99.90
26479;DHT22;14163;-26.142;27.992;2023-08-17T09:28:15;19.50;99.90
26479;DHT22;14163;-26.142;27.992;2023-08-17T09:30:51;19.40;99.90
26479;DHT22;14163;-26.142;27.992;2023-08-17T09:33:21;19.40;99.90
26479;DHT22;14163;-26.142;27.992;2023-08-17T09:35:50;19.70;99.90
26479;DHT22;14163;-26.142;27.992;2023-08-17T09:38:20;19.70;99.90
26479;DHT22;14163;-26.142;27.992;2023-08-17T09:40:49;19.80;99.90
26479;DHT22;14163;-26.142;27.992;2023-08-17T09:43:20;20.10;99.90
26479;DHT22;14163;-26.142;27.992;2023-08-17T09:45:50;20.40;99.90
26479;DHT22;14163;-26.142;27.992;2023-08-17T09:48:19;20.80;99.90
26479;DHT22;14163;-26.142;27.992;2023-08-17T09:50:49;21.40;99.90
26479;DHT22;14163;-26.142;27.992;2023-08-17T09:53:18;21.50;99.90
26479;DHT22;14163;-26.142;27.992;2023-08-17T09:55:48;21.30;99.90
26479;DHT22;14163;-26.142;27.992;2023-08-17T09:58:17;21.50;99.90
26479;DHT22;14163;-26.142;27.992;2023-08-17T10:00:49;21.60;99.90
26479;DHT22;14163;-26.142;27.992;2023-08-17T10:03:18;21.50;99.90
26479;DHT22;14163;-26.142;27.992;2023-08-17T10:05:51;21.80;99.90
26479;DHT22;14163;-26.142;27.992;2023-08-17T10:08:22;22.00;99.90
26479;DHT22;14163;-26.142;27.992;2023-08-17T10:10:52;22.50;99.90
26479;DHT22;14163;-26.142;27.992;2023-08-17T10:13:26;23.30;99.90
26479;DHT22;14163;-26.142;27.992;2023-08-17T10:16:03;23.50;99.90
26479;DHT22;14163;-26.142;27.992;2023-08-17T10:18:40;23.80;99.90
26479;DHT22;14163;-26.142;27.992;2023-08-17T10:21:19;23.50;99.90
26479;DHT22;14163;-26.142;27.992;2023-08-17T10:23:50;22.90;99.90
26479;DHT22;14163;-26.142;27.992;2023-08-17T10:26:20;22.60;99.90
26479;DHT22;14163;-26.142;27.992;2023-08-17T10:28:51;22.90;99.90
26479;DHT22;14163;-26.142;27.992;2023-08-17T10:31:22;23.20;99.90
26479;DHT22;14163;-26.142;27.992;2023-08-17T10:33:52;23.80;99.90
26479;DHT22;14163;-26.142;27.992;2023-08-17T10:36:21;23.80;99.60
26479;DHT22;14163;-26.142;27.992;2023-08-17T10:39:18;23.70;99.40
26479;DHT22;14163;-26.142;27.992;2023-08-17T10:41:47;24.20;98.30
26479;DHT22;14163;-26.142;27.992;2023-08-17T10:44:18;24.80;95.90
26479;DHT22;14163;-26.142;27.992;2023-08-17T10:47:22;25.10;96.40
26479;DHT22;14163;-26.142;27.992;2023-08-17T10:49:55;25.10;96.10
26479;DHT22;14163;-26.142;27.992;2023-08-17T10:52:28;25.10;93.10
26479;DHT22;14163;-26.142;27.992;2023-08-17T10:55:01;24.60;92.40
26479;DHT22;14163;-26.142;27.992;2023-08-17T10:57:32;24.90;92.20
26479;DHT22;14163;-26.142;27.992;2023-08-17T11:00:22;25.70;91.40
26479;DHT22;14163;-26.142;27.992;2023-08-17T11:02:56;25.90;89.60
26479;DHT22;14163;-26.142;27.992;2023-08-17T11:05:39;26.40;87.50
26479;DHT22;14163;-26.142;27.992;2023-08-17T11:08:09;26.80;82.90
26479;DHT22;14163;-26.142;27.992;2023-08-17T11:10:41;26.20;80.20
26479;DHT22;14163;-26.142;27.992;2023-08-17T11:13:10;26.30;81.80
26479;DHT22;14163;-26.142;27.992;2023-08-17T11:15:40;26.00;81.00
26479;DHT22;14163;-26.142;27.992;2023-08-17T11:18:14;26.10;80.90
26479;DHT22;14163;-26.142;27.992;2023-08-17T11:20:43;26.00;82.00
26479;DHT22;14163;-26.142;27.992;2023-08-17T11:23:13;26.50;80.80
26479;DHT22;14163;-26.142;27.992;2023-08-17T11:25:42;26.70;79.20
26479;DHT22;14163;-26.142;27.992;2023-08-17T11:28:13;27.40;79.00
26479;DHT22;14163;-26.142;27.992;2023-08-17T11:30:43;28.20;77.10
26479;DHT22;14163;-26.142;27.992;2023-08-17T11:33:14;28.20;72.60
26479;DHT22;14163;-26.142;27.992;2023-08-17T11:35:43;27.40;72.50
26479;DHT22;14163;-26.142;27.992;2023-08-17T11:38:12;26.90;72.90
26479;DHT22;14163;-26.142;27.992;2023-08-17T11:40:42;26.70;72.20
26479;DHT22;14163;-26.142;27.992;2023-08-17T11:43:11;26.60;70.30
26479;DHT22;14163;-26.142;27.992;2023-08-17T11:45:40;27.00;70.70
26479;DHT22;14163;-26.142;27.992;2023-08-17T11:48:09;26.80;70.20
26479;DHT22;14163;-26.142;27.992;2023-08-17T11:50:40;27.10;71.40
26479;DHT22;14163;-26.142;27.992;2023-08-17T11:53:09;27.70;71.10
26479;DHT22;14163;-26.142;27.992;2023-08-17T11:55:38;27.60;67.90
26479;DHT22;14163;-26.142;27.992;2023-08-17T11:58:08;27.10;68.90
26479;DHT22;14163;-26.142;27.992;2023-08-17T12:00:39;26.80;67.70
26479;DHT22;14163;-26.142;27.992;2023-08-17T12:03:14;26.50;65.40
26479;DHT22;14163;-26.142;27.992;2023-08-17T12:05:46;25.80;67.90
26479;DHT22;14163;-26.142;27.992;2023-08-17T12:08:15;25.70;69.90
26479;DHT22;14163;-26.142;27.992;2023-08-17T12:10:45;25.50;69.50
26479;DHT22;14163;-26.142;27.992;2023-08-17T12:13:14;25.10;69.80
26479;DHT22;14163;-26.142;27.992;2023-08-17T12:15:43;24.70;69.60
26479;DHT22;14163;-26.142;27.992;2023-08-17T12:18:12;24.40;68.60
26479;DHT22;14163;-26.142;27.992;2023-08-17T12:20:41;24.70;67.30
26479;DHT22;14163;-26.142;27.992;2023-08-17T12:23:12;25.10;68.40
26479;DHT22;14163;-26.142;27.992;2023-08-17T12:25:41;25.30;68.40
26479;DHT22;14163;-26.142;27.992;2023-08-17T12:28:13;25.10;64.70
26479;DHT22;14163;-26.142;27.992;2023-08-17T12:30:42;24.90;65.20
26479;DHT22;14163;-26.142;27.992;2023-08-17T12:33:12;24.70;64.30
26479;DHT22;14163;-26.142;27.992;2023-08-17T12:35:41;24.10;64.20
26479;DHT22;14163;-26.142;27.992;2023-08-17T12:38:12;24.20;63.40
26479;DHT22;14163;-26.142;27.992;2023-08-17T12:40:41;24.40;63.60
26479;DHT22;14163;-26.142;27.992;2023-08-17T12:43:10;24.70;63.50
26479;DHT22;14163;-26.142;27.992;2023-08-17T12:45:44;24.60;64.30
26479;DHT22;14163;-26.142;27.992;2023-08-17T12:48:19;24.50;64.20
26479;DHT22;14163;-26.142;27.992;2023-08-17T12:50:48;24.40;63.00
26479;DHT22;14163;-26.142;27.992;2023-08-17T12:53:19;24.30;63.30
26479;DHT22;14163;-26.142;27.992;2023-08-17T12:55:53;24.30;63.40
26479;DHT22;14163;-26.142;27.992;2023-08-17T12:58:22;24.30;63.50
26479;DHT22;14163;-26.142;27.992;2023-08-17T13:00:51;24.10;63.80
26479;DHT22;14163;-26.142;27.992;2023-08-17T13:03:21;24.20;63.80
26479;DHT22;14163;-26.142;27.992;2023-08-17T13:05:50;24.40;62.20
26479;DHT22;14163;-26.142;27.992;2023-08-17T13:08:21;24.70;60.20
26479;DHT22;14163;-26.142;27.992;2023-08-17T13:10:50;24.60;60.00
26479;DHT22;14163;-26.142;27.992;2023-08-17T13:13:19;24.50;60.20
26479;DHT22;14163;-26.142;27.992;2023-08-17T13:15:48;24.30;60.00
26479;DHT22;14163;-26.142;27.992;2023-08-17T13:18:17;24.10;59.90
26479;DHT22;14163;-26.142;27.992;2023-08-17T13:20:46;23.90;59.70
26479;DHT22;14163;-26.142;27.992;2023-08-17T13:23:16;23.90;60.20
26479;DHT22;14163;-26.142;27.992;2023-08-17T13:25:47;24.00;60.40
26479;DHT22;14163;-26.142;27.992;2023-08-17T13:28:16;24.20;60.20
26479;DHT22;14163;-26.142;27.992;2023-08-17T13:30:45;24.30;59.80
26479;DHT22;14163;-26.142;27.992;2023-08-17T13:33:15;24.60;58.80
26479;DHT22;14163;-26.142;27.992;2023-08-17T13:35:44;24.70;59.50
26479;DHT22;14163;-26.142;27.992;2023-08-17T13:38:14;24.60;59.40
26479;DHT22;14163;-26.142;27.992;2023-08-17T13:40:43;24.40;59.40
26479;DHT22;14163;-26.142;27.992;2023-08-17T13:43:13;24.30;59.60
26479;DHT22;14163;-26.142;27.992;2023-08-17T13:45:43;24.30;59.50
26479;DHT22;14163;-26.142;27.992;2023-08-17T13:48:12;24.00;58.80
26479;DHT22;14163;-26.142;27.992;2023-08-17T13:50:41;24.10;59.80
26479;DHT22;14163;-26.142;27.992;2023-08-17T13:53:11;24.30;59.70
26479;DHT22;14163;-26.142;27.992;2023-08-17T13:55:40;24.20;59.60
26479;DHT22;14163;-26.142;27.992;2023-08-17T13:58:09;24.30;60.40
26479;DHT22;14163;-26.142;27.992;2023-08-17T14:00:40;24.50;59.60
26479;DHT22;14163;-26.142;27.992;2023-08-17T14:03:10;24.20;58.50
26479;DHT22;14163;-26.142;27.992;2023-08-17T14:05:39;24.00;58.10
26479;DHT22;14163;-26.142;27.992;2023-08-17T14:08:08;23.80;58.80
26479;DHT22;14163;-26.142;27.992;2023-08-17T14:10:37;24.00;59.00
26479;DHT22;14163;-26.142;27.992;2023-08-17T14:13:07;23.90;58.70
26479;DHT22;14163;-26.142;27.992;2023-08-17T14:15:36;24.00;59.00
26479;DHT22;14163;-26.142;27.992;2023-08-17T14:18:08;23.80;59.00
26479;DHT22;14163;-26.142;27.992;2023-08-17T14:20:40;23.80;59.60
26479;DHT22;14163;-26.142;27.992;2023-08-17T14:23:09;23.80;59.40
26479;DHT22;14163;-26.142;27.992;2023-08-17T14:25:38;23.80;59.20
26479;DHT22;14163;-26.142;27.992;2023-08-17T14:28:11;24.10;59.30
26479;DHT22;14163;-26.142;27.992;2023-08-17T14:30:40;24.00;58.60
26479;DHT22;14163;-26.142;27.992;2023-08-17T14:33:11;23.70;58.90
26479;DHT22;14163;-26.142;27.992;2023-08-17T14:35:42;23.70;59.50
26479;DHT22;14163;-26.142;27.992;2023-08-17T14:38:11;23.60;59.70
26479;DHT22;14163;-26.142;27.992;2023-08-17T14:40:43;23.30;59.70
26479;DHT22;14163;-26.142;27.992;2023-08-17T14:43:12;23.30;60.00
26479;DHT22;14163;-26.142;27.992;2023-08-17T14:45:42;23.30;60.50
26479;DHT22;14163;-26.142;27.992;2023-08-17T14:48:12;23.40;60.40
26479;DHT22;14163;-26.142;27.992;2023-08-17T14:50:43;23.40;60.50
26479;DHT22;14163;-26.142;27.992;2023-08-17T14:53:12;23.30;61.20
26479;DHT22;14163;-26.142;27.992;2023-08-17T14:55:41;23.40;61.00
26479;DHT22;14163;-26.142;27.992;2023-08-17T14:58:10;23.40;61.00
26479;DHT22;14163;-26.142;27.992;2023-08-17T15:00:40;23.20;61.50
26479;DHT22;14163;-26.142;27.992;2023-08-17T15:03:11;23.10;62.00
26479;DHT22;14163;-26.142;27.992;2023-08-17T15:05:40;23.20;63.60
26479;DHT22;14163;-26.142;27.992;2023-08-17T15:08:09;23.30;62.80
26479;DHT22;14163;-26.142;27.992;2023-08-17T15:10:38;23.60;63.20
26479;DHT22;14163;-26.142;27.992;2023-08-17T15:13:07;23.60;62.80
26479;DHT22;14163;-26.142;27.992;2023-08-17T15:15:36;23.60;63.20
26479;DHT22;14163;-26.142;27.992;2023-08-17T15:18:05;23.40;63.10
26479;DHT22;14163;-26.142;27.992;2023-08-17T15:20:37;23.30;63.70